createdAt,value
2017-04-14T00:00:13.933Z,6.40
2017-04-14T00:01:11.690Z,6.30
2017-04-14T00:02:09.031Z,6.30
2017-04-14T00:03:06.363Z,6.40
2017-04-14T00:04:03.668Z,6.40
2017-04-14T00:05:00.990Z,6.40
2017-04-14T00:05:58.370Z,6.40
2017-04-14T00:06:55.758Z,6.40
2017-04-14T00:07:53.915Z,6.40
2017-04-14T00:08:51.214Z,6.40
2017-04-14T00:09:48.546Z,6.50
2017-04-14T00:10:45.866Z,6.40
2017-04-14T00:11:43.997Z,6.50
2017-04-14T00:12:41.509Z,6.40
2017-04-14T00:13:38.903Z,6.40
2017-04-14T00:14:37.046Z,6.30
2017-04-14T00:15:34.412Z,6.40
2017-04-14T00:16:31.781Z,6.40
2017-04-14T00:17:29.105Z,6.40
2017-04-14T00:18:27.506Z,6.40
2017-04-14T00:19:24.834Z,6.30
2017-04-14T00:20:22.990Z,6.30
2017-04-14T00:21:20.377Z,6.20
2017-04-14T00:22:17.831Z,6.30
2017-04-14T00:23:15.154Z,6.20
2017-04-14T00:24:12.666Z,6.20
2017-04-14T00:25:10.710Z,6.20
2017-04-14T00:26:08.817Z,6.20
2017-04-14T00:27:06.354Z,6.20
2017-04-14T00:28:03.672Z,6.20
2017-04-14T00:29:01.734Z,6.30
2017-04-14T00:29:59.982Z,6.30
2017-04-14T00:30:57.513Z,6.20
2017-04-14T00:31:54.878Z,6.30
2017-04-14T00:32:52.223Z,6.20
2017-04-14T00:33:49.583Z,6.30
2017-04-14T00:34:46.927Z,6.30
2017-04-14T00:35:44.508Z,6.20
2017-04-14T00:36:42.582Z,6.10
2017-04-14T00:37:39.883Z,6.10
2017-04-14T00:38:37.184Z,6.10
2017-04-14T00:39:35.218Z,6.10
2017-04-14T00:40:33.377Z,6.00
2017-04-14T00:41:30.779Z,6.00
2017-04-14T00:42:28.834Z,6.10
2017-04-14T00:43:26.902Z,6.20
2017-04-14T00:44:24.258Z,6.10
2017-04-14T00:45:21.955Z,6.20
2017-04-14T00:46:19.276Z,6.20
2017-04-14T00:47:16.673Z,6.20
2017-04-14T00:48:13.973Z,6.30
2017-04-14T00:49:11.327Z,6.30
2017-04-14T00:50:08.722Z,6.40
2017-04-14T00:51:06.062Z,6.40
2017-04-14T00:52:03.447Z,6.40
2017-04-14T00:53:01.602Z,6.50
2017-04-14T00:53:59.022Z,6.50
2017-04-14T00:54:56.422Z,6.50
2017-04-14T00:55:54.478Z,6.60
2017-04-14T00:56:51.833Z,6.50
2017-04-14T00:57:49.889Z,6.50
2017-04-14T00:58:48.055Z,6.50
2017-04-14T00:59:45.841Z,6.50
2017-04-14T01:00:43.137Z,6.60
2017-04-14T01:01:40.466Z,6.60
2017-04-14T01:02:37.792Z,6.60
2017-04-14T01:03:35.964Z,6.70
2017-04-14T01:04:33.416Z,6.70
2017-04-14T01:05:30.717Z,6.70
2017-04-14T01:06:28.038Z,6.60
2017-04-14T01:07:26.072Z,6.60
2017-04-14T01:08:24.237Z,6.60
2017-04-14T01:09:21.570Z,6.50
2017-04-14T01:10:19.027Z,6.60
2017-04-14T01:11:16.358Z,6.60
2017-04-14T01:12:13.792Z,6.60
2017-04-14T01:13:11.185Z,6.60
2017-04-14T01:14:08.518Z,6.70
2017-04-14T01:15:05.823Z,6.70
2017-04-14T01:16:03.364Z,6.60
2017-04-14T01:17:00.746Z,6.70
2017-04-14T01:17:58.051Z,6.60
2017-04-14T01:18:56.097Z,6.70
2017-04-14T01:19:53.485Z,6.70
2017-04-14T01:20:50.822Z,6.70
2017-04-14T01:21:49.191Z,6.70
2017-04-14T01:22:47.241Z,6.80
2017-04-14T01:23:45.176Z,6.70
2017-04-14T01:24:42.493Z,6.80
2017-04-14T01:25:40.586Z,6.90
2017-04-14T01:26:37.946Z,6.80
2017-04-14T01:27:35.393Z,6.90
2017-04-14T01:28:32.717Z,7.00
2017-04-14T01:29:30.022Z,7.00
2017-04-14T01:30:28.098Z,7.10
2017-04-14T01:31:26.155Z,7.10
2017-04-14T01:32:23.490Z,7.10
2017-04-14T01:33:20.887Z,7.10
2017-04-14T01:34:18.949Z,7.10
2017-04-14T01:35:16.294Z,7.10
2017-04-14T01:36:13.624Z,7.20
2017-04-14T01:37:10.984Z,7.20
2017-04-14T01:38:08.440Z,7.10
2017-04-14T01:39:05.882Z,7.20
2017-04-14T01:40:03.230Z,7.10
2017-04-14T01:41:00.529Z,7.10
2017-04-14T01:41:57.869Z,7.10
2017-04-14T01:42:55.945Z,7.20
2017-04-14T01:43:54.011Z,7.20
2017-04-14T01:44:51.416Z,7.20
2017-04-14T01:45:48.717Z,7.20
2017-04-14T01:46:46.025Z,7.20
2017-04-14T01:47:43.641Z,7.20
2017-04-14T01:48:40.962Z,7.20
2017-04-14T01:49:38.314Z,7.20
2017-04-14T01:50:35.688Z,7.20
2017-04-14T01:51:33.733Z,7.30
2017-04-14T01:52:31.936Z,7.20
2017-04-14T01:53:30.025Z,7.20
2017-04-14T01:54:27.411Z,7.20
2017-04-14T01:55:24.725Z,7.20
2017-04-14T01:56:22.129Z,7.30
2017-04-14T01:57:20.350Z,7.30
2017-04-14T01:58:17.719Z,7.30
2017-04-14T01:59:15.052Z,7.30
2017-04-14T02:00:12.395Z,7.40
2017-04-14T02:01:09.726Z,7.40
2017-04-14T02:02:07.106Z,7.40
2017-04-14T02:03:04.495Z,7.40
2017-04-14T02:04:01.813Z,7.40
2017-04-14T02:04:59.267Z,7.40
2017-04-14T02:05:56.669Z,7.40
2017-04-14T02:06:54.038Z,7.40
2017-04-14T02:07:51.457Z,7.30
2017-04-14T02:08:48.785Z,7.30
2017-04-14T02:09:46.144Z,7.30
2017-04-14T02:10:43.470Z,7.30
2017-04-14T02:11:40.942Z,7.30
2017-04-14T02:12:38.291Z,7.30
2017-04-14T02:13:36.203Z,7.40
2017-04-14T02:14:34.277Z,7.40
2017-04-14T02:15:32.122Z,7.40
2017-04-14T02:16:29.510Z,7.40
2017-04-14T02:17:27.227Z,7.50
2017-04-14T02:18:24.565Z,7.50
2017-04-14T02:19:22.150Z,7.40
2017-04-14T02:20:20.070Z,7.40
2017-04-14T02:21:17.363Z,7.40
2017-04-14T02:22:15.031Z,7.40
2017-04-14T02:23:12.374Z,7.50
2017-04-14T02:24:09.694Z,7.50
2017-04-14T02:25:07.078Z,7.50
2017-04-14T02:26:05.165Z,7.60
2017-04-14T02:27:02.583Z,7.60
2017-04-14T02:28:00.477Z,7.50
2017-04-14T02:28:57.790Z,7.50
2017-04-14T02:29:55.830Z,7.60
2017-04-14T02:30:53.967Z,7.60
2017-04-14T02:31:52.077Z,7.50
2017-04-14T02:32:50.166Z,7.50
2017-04-14T02:33:48.235Z,7.40
2017-04-14T02:34:45.591Z,7.40
2017-04-14T02:35:43.122Z,7.40
2017-04-14T02:36:40.588Z,7.40
2017-04-14T02:37:37.933Z,7.50
2017-04-14T02:38:35.238Z,7.50
2017-04-14T02:39:32.528Z,7.50
2017-04-14T02:40:29.849Z,7.60
2017-04-14T02:41:27.186Z,7.60
2017-04-14T02:42:25.254Z,7.60
2017-04-14T02:43:22.587Z,7.60
2017-04-14T02:44:20.693Z,7.70
2017-04-14T02:45:19.338Z,7.70
2017-04-14T02:46:16.662Z,7.70
2017-04-14T02:47:13.953Z,7.80
2017-04-14T02:48:12.089Z,7.80
2017-04-14T02:49:10.097Z,7.70
2017-04-14T02:50:07.458Z,7.80
2017-04-14T02:51:04.796Z,7.80
2017-04-14T02:52:02.145Z,7.80
2017-04-14T02:52:59.493Z,7.80
2017-04-14T02:53:56.881Z,7.80
2017-04-14T02:54:54.242Z,7.90
2017-04-14T02:55:51.538Z,7.90
2017-04-14T02:56:49.618Z,7.90
2017-04-14T02:57:46.921Z,7.90
2017-04-14T02:58:44.217Z,7.90
2017-04-14T02:59:41.618Z,7.90
2017-04-14T03:00:39.694Z,7.90
2017-04-14T03:01:37.075Z,7.80
2017-04-14T03:02:34.398Z,7.90
2017-04-14T03:03:31.704Z,7.80
2017-04-14T03:04:30.023Z,7.90
2017-04-14T03:05:27.939Z,7.90
2017-04-14T03:06:25.250Z,7.90
2017-04-14T03:07:22.562Z,7.90
2017-04-14T03:08:20.600Z,7.90
2017-04-14T03:09:18.659Z,7.90
2017-04-14T03:10:16.709Z,7.90
2017-04-14T03:11:14.117Z,7.80
2017-04-14T03:12:12.474Z,7.90
2017-04-14T03:13:09.807Z,7.90
2017-04-14T03:14:07.204Z,7.80
2017-04-14T03:15:04.533Z,7.80
2017-04-14T03:16:01.829Z,7.80
2017-04-14T03:16:59.990Z,7.80
2017-04-14T03:17:57.974Z,7.80
2017-04-14T03:18:55.284Z,7.80
2017-04-14T03:19:52.602Z,7.80
2017-04-14T03:20:49.926Z,7.80
2017-04-14T03:21:47.256Z,7.80
2017-04-14T03:22:44.673Z,7.80
2017-04-14T03:23:41.991Z,7.80
2017-04-14T03:24:40.067Z,7.90
2017-04-14T03:25:37.418Z,7.90
2017-04-14T03:26:34.716Z,7.90
2017-04-14T03:27:32.022Z,7.90
2017-04-14T03:28:29.413Z,7.90
2017-04-14T03:29:26.727Z,7.90
2017-04-14T03:30:24.187Z,7.90
2017-04-14T03:31:21.566Z,7.90
2017-04-14T03:32:19.853Z,7.90
2017-04-14T03:33:17.166Z,7.90
2017-04-14T03:34:15.421Z,7.90
2017-04-14T03:35:12.738Z,7.90
2017-04-14T03:36:10.045Z,7.90
2017-04-14T03:37:07.378Z,7.90
2017-04-14T03:38:05.429Z,7.90
2017-04-14T03:39:02.937Z,7.90
2017-04-14T03:40:00.305Z,8.00
2017-04-14T03:40:57.630Z,8.00
2017-04-14T03:41:56.253Z,8.00
2017-04-14T03:42:53.554Z,8.00
2017-04-14T03:43:50.874Z,8.00
2017-04-14T03:44:48.217Z,8.00
2017-04-14T03:45:45.604Z,8.00
2017-04-14T03:46:42.921Z,8.00
2017-04-14T03:47:40.240Z,7.90
2017-04-14T03:48:37.570Z,8.00
2017-04-14T03:49:34.921Z,8.00
2017-04-14T03:50:32.221Z,8.00
2017-04-14T03:51:29.638Z,8.00
2017-04-14T03:52:26.952Z,8.00
2017-04-14T03:53:24.904Z,8.00
2017-04-14T03:54:22.301Z,8.00
2017-04-14T03:55:19.601Z,8.00
2017-04-14T03:56:16.918Z,8.00
2017-04-14T03:57:15.092Z,8.10
2017-04-14T03:58:12.405Z,8.00
2017-04-14T03:59:09.718Z,8.00
2017-04-14T04:00:07.033Z,8.00
2017-04-14T04:01:04.450Z,8.00
2017-04-14T04:02:01.807Z,8.10
2017-04-14T04:02:59.198Z,8.10
2017-04-14T04:03:57.094Z,8.10
2017-04-14T04:04:54.560Z,8.20
2017-04-14T04:05:51.874Z,8.10
2017-04-14T04:06:49.199Z,8.10
2017-04-14T04:07:46.493Z,8.20
2017-04-14T04:08:43.920Z,8.10
2017-04-14T04:09:42.238Z,8.10
2017-04-14T04:10:39.554Z,8.10
2017-04-14T04:11:36.882Z,8.10
2017-04-14T04:12:34.920Z,8.00
2017-04-14T04:13:32.282Z,8.00
2017-04-14T04:14:29.682Z,8.00
2017-04-14T04:15:27.788Z,8.00
2017-04-14T04:16:25.083Z,8.00
2017-04-14T04:17:22.424Z,8.00
2017-04-14T04:18:19.744Z,8.00
2017-04-14T04:19:17.610Z,7.90
2017-04-14T04:20:14.967Z,7.90
2017-04-14T04:21:12.299Z,7.90
2017-04-14T04:22:10.185Z,7.90
2017-04-14T04:23:07.480Z,7.80
2017-04-14T04:24:04.770Z,7.80
2017-04-14T04:25:02.616Z,7.80
2017-04-14T04:26:00.691Z,7.80
2017-04-14T04:26:58.267Z,7.80
2017-04-14T04:27:56.152Z,7.80
2017-04-14T04:28:53.498Z,7.80
2017-04-14T04:29:50.837Z,7.80
2017-04-14T04:30:48.133Z,7.80
2017-04-14T04:31:51.939Z,7.80
2017-04-14T04:34:58.450Z,7.80
2017-04-14T04:35:56.251Z,7.80
2017-04-14T04:36:54.390Z,7.70
2017-04-14T04:37:51.762Z,7.70
2017-04-14T04:38:49.068Z,7.70
2017-04-14T04:39:47.226Z,7.70
2017-04-14T04:40:45.367Z,7.70
2017-04-14T04:41:42.771Z,7.70
2017-04-14T04:42:40.141Z,7.70
2017-04-14T04:43:37.461Z,7.70
2017-04-14T04:44:34.776Z,7.70
2017-04-14T04:45:32.093Z,7.70
2017-04-14T04:46:29.497Z,7.70
2017-04-14T04:47:26.822Z,7.70
2017-04-14T04:48:25.075Z,7.60
2017-04-14T04:49:22.416Z,7.60
2017-04-14T04:50:19.763Z,7.60
2017-04-14T04:51:17.093Z,7.60
2017-04-14T04:52:14.404Z,7.60
2017-04-14T04:53:12.516Z,7.60
2017-04-14T04:54:09.925Z,7.60
2017-04-14T04:55:07.357Z,7.60
2017-04-14T04:56:06.337Z,7.60
2017-04-14T04:57:03.662Z,7.60
2017-04-14T04:58:01.850Z,7.60
2017-04-14T04:58:59.955Z,7.60
2017-04-14T04:59:58.867Z,7.60
2017-04-14T05:00:56.988Z,7.60
2017-04-14T05:01:55.815Z,7.60
2017-04-14T05:02:53.099Z,7.60
2017-04-14T05:03:50.422Z,7.60
2017-04-14T05:04:47.864Z,7.60
2017-04-14T05:05:45.279Z,7.70
2017-04-14T05:06:42.583Z,7.70
2017-04-14T05:07:40.635Z,7.70
2017-04-14T05:08:37.955Z,7.70
2017-04-14T05:09:35.300Z,7.70
2017-04-14T05:10:32.630Z,7.70
2017-04-14T05:11:31.303Z,7.60
2017-04-14T05:12:28.730Z,7.60
2017-04-14T05:13:26.046Z,7.60
2017-04-14T05:14:24.094Z,7.60
2017-04-14T05:15:22.117Z,7.60
2017-04-14T05:16:19.449Z,7.60
2017-04-14T05:17:16.924Z,7.50
2017-04-14T05:18:14.226Z,7.50
2017-04-14T05:19:11.615Z,7.50
2017-04-14T05:20:09.738Z,7.50
2017-04-14T05:21:07.960Z,7.60
2017-04-14T05:22:05.386Z,7.50
2017-04-14T05:23:02.911Z,7.60
2017-04-14T05:24:00.378Z,7.60
2017-04-14T05:24:57.705Z,7.60
2017-04-14T05:25:55.031Z,7.50
2017-04-14T05:26:52.362Z,7.60
2017-04-14T05:27:49.670Z,7.50
2017-04-14T05:28:47.106Z,7.50
2017-04-14T05:29:44.435Z,7.60
2017-04-14T05:30:41.828Z,7.60
2017-04-14T05:31:39.174Z,7.60
2017-04-14T05:32:36.507Z,7.60
2017-04-14T05:33:33.878Z,7.60
2017-04-14T05:34:31.290Z,7.70
2017-04-14T05:35:28.604Z,7.60
2017-04-14T05:36:25.923Z,7.70
2017-04-14T05:37:23.217Z,7.70
2017-04-14T05:38:21.297Z,7.70
2017-04-14T05:39:19.402Z,7.70
2017-04-14T05:40:17.476Z,7.70
2017-04-14T05:41:14.851Z,7.70
2017-04-14T05:42:12.245Z,7.60
2017-04-14T05:43:09.584Z,7.60
2017-04-14T05:44:08.370Z,7.70
2017-04-14T05:45:05.668Z,7.60
2017-04-14T05:46:03.108Z,7.60
2017-04-14T05:47:00.405Z,7.70
2017-04-14T05:47:57.733Z,7.70
2017-04-14T05:48:55.036Z,7.70
2017-04-14T05:49:52.371Z,7.80
2017-04-14T05:50:49.670Z,7.80
2017-04-14T05:51:47.736Z,7.80
2017-04-14T05:52:45.075Z,7.70
2017-04-14T05:53:42.401Z,7.80
2017-04-14T05:54:39.689Z,7.80
2017-04-14T05:55:37.060Z,7.80
2017-04-14T05:56:34.461Z,7.80
2017-04-14T05:57:33.513Z,7.70
2017-04-14T05:58:30.831Z,7.70
2017-04-14T05:59:28.263Z,7.70
2017-04-14T06:00:26.423Z,7.80
2017-04-14T06:01:23.738Z,7.80
2017-04-14T06:02:21.166Z,7.90
2017-04-14T06:03:21.315Z,7.90
2017-04-14T06:04:18.606Z,8.00
2017-04-14T06:05:15.994Z,8.10
2017-04-14T06:06:13.371Z,8.10
2017-04-14T06:07:10.692Z,8.10
2017-04-14T06:08:08.087Z,8.20
2017-04-14T06:09:05.401Z,8.20
2017-04-14T06:10:02.726Z,8.20
2017-04-14T06:11:00.070Z,8.30
2017-04-14T06:11:58.797Z,8.30
2017-04-14T06:12:56.115Z,8.30
2017-04-14T06:13:53.474Z,8.30
2017-04-14T06:14:50.815Z,8.30
2017-04-14T06:15:48.136Z,8.30
2017-04-14T06:16:45.481Z,8.40
2017-04-14T06:17:42.802Z,8.40
2017-04-14T06:18:40.132Z,8.40
2017-04-14T06:19:38.338Z,8.50
2017-04-14T06:20:36.553Z,8.60
2017-04-14T06:21:34.753Z,8.50
2017-04-14T06:22:32.840Z,8.60
2017-04-14T06:23:30.942Z,8.60
2017-04-14T06:24:29.961Z,8.60
2017-04-14T06:25:28.133Z,8.70
2017-04-14T06:26:26.182Z,8.80
2017-04-14T06:27:23.485Z,8.70
2017-04-14T06:28:20.845Z,8.80
2017-04-14T06:29:18.155Z,8.90
2017-04-14T06:30:15.556Z,8.90
2017-04-14T06:31:13.118Z,9.00
2017-04-14T06:32:11.390Z,9.00
2017-04-14T06:33:08.701Z,9.00
2017-04-14T06:34:06.791Z,9.00
2017-04-14T06:35:04.873Z,9.10
2017-04-14T06:36:02.954Z,9.00
2017-04-14T06:37:01.211Z,9.00
2017-04-14T06:37:59.323Z,9.00
2017-04-14T06:38:57.438Z,9.00
2017-04-14T06:39:55.775Z,9.00
2017-04-14T06:40:54.949Z,9.00
2017-04-14T06:41:53.138Z,9.00
2017-04-14T06:42:50.546Z,8.90
2017-04-14T06:43:47.862Z,8.90
2017-04-14T06:44:45.197Z,8.90
2017-04-14T06:45:43.249Z,9.10
2017-04-14T06:46:40.598Z,9.00
2017-04-14T06:47:37.947Z,9.10
2017-04-14T06:48:35.443Z,9.00
2017-04-14T06:49:33.369Z,9.10
2017-04-14T06:50:30.689Z,9.10
2017-04-14T06:51:28.034Z,9.10
2017-04-14T06:52:25.378Z,9.10
2017-04-14T06:53:23.565Z,9.10
2017-04-14T06:54:21.072Z,9.00
2017-04-14T06:55:18.402Z,9.00
2017-04-14T06:56:15.703Z,9.10
2017-04-14T06:57:13.756Z,9.10
2017-04-14T06:58:11.098Z,9.10
2017-04-14T06:59:08.418Z,9.10
2017-04-14T07:00:06.557Z,9.10
2017-04-14T07:01:03.984Z,9.10
2017-04-14T07:02:01.328Z,9.10
2017-04-14T07:02:59.519Z,9.10
2017-04-14T07:03:57.639Z,9.10
2017-04-14T07:04:55.735Z,9.10
2017-04-14T07:05:54.258Z,9.20
2017-04-14T07:06:53.149Z,9.20
2017-04-14T07:07:51.210Z,9.20
2017-04-14T07:08:49.330Z,9.20
2017-04-14T07:09:48.072Z,9.20
2017-04-14T07:10:46.997Z,9.20
2017-04-14T07:11:45.234Z,9.20
2017-04-14T07:12:43.660Z,9.30
2017-04-14T07:13:41.755Z,9.30
2017-04-14T07:14:40.894Z,9.30
2017-04-14T07:15:38.962Z,9.30
2017-04-14T07:16:37.048Z,9.30
2017-04-14T07:17:35.491Z,9.40
2017-04-14T07:18:33.588Z,9.40
2017-04-14T07:19:32.308Z,9.40
2017-04-14T07:20:30.390Z,9.40
2017-04-14T07:21:27.783Z,9.40
2017-04-14T07:22:25.150Z,9.50
2017-04-14T07:23:23.346Z,9.50
2017-04-14T07:24:20.667Z,9.50
2017-04-14T07:25:18.092Z,9.60
2017-04-14T07:26:17.067Z,9.60
2017-04-14T07:27:15.178Z,9.70
2017-04-14T07:28:13.198Z,9.70
2017-04-14T07:29:10.609Z,9.80
2017-04-14T07:30:08.009Z,9.80
2017-04-14T07:31:05.363Z,9.80
2017-04-14T07:32:03.824Z,9.90
2017-04-14T07:33:02.133Z,10.00
2017-04-14T07:33:59.560Z,10.00
2017-04-14T07:34:57.029Z,10.00
2017-04-14T07:35:54.351Z,10.10
2017-04-14T07:36:51.771Z,10.10
2017-04-14T07:37:49.246Z,10.10
2017-04-14T07:38:46.605Z,10.10
2017-04-14T07:39:43.953Z,10.10
2017-04-14T07:40:41.432Z,10.00
2017-04-14T07:41:39.529Z,10.00
2017-04-14T07:42:36.863Z,10.00
2017-04-14T07:43:34.218Z,10.00
2017-04-14T07:44:32.062Z,10.10
2017-04-14T07:45:30.226Z,10.20
2017-04-14T07:46:27.613Z,10.10
2017-04-14T07:47:25.943Z,10.10
2017-04-14T07:48:23.528Z,10.20
2017-04-14T07:49:21.758Z,10.20
2017-04-14T07:50:19.067Z,10.20
2017-04-14T07:51:17.110Z,10.30
2017-04-14T07:52:15.250Z,10.30
2017-04-14T07:53:13.324Z,10.30
2017-04-14T07:54:10.678Z,10.40
2017-04-14T07:55:08.178Z,10.40
2017-04-14T07:56:06.260Z,10.40
2017-04-14T07:57:04.343Z,10.50
2017-04-14T07:58:02.603Z,10.50
2017-04-14T07:59:00.809Z,10.50
2017-04-14T07:59:58.197Z,10.50
2017-04-14T08:00:56.599Z,10.50
2017-04-14T08:01:53.980Z,10.50
2017-04-14T08:02:51.298Z,10.60
2017-04-14T08:03:48.667Z,10.70
2017-04-14T08:04:46.835Z,10.70
2017-04-14T08:05:47.266Z,10.70
2017-04-14T08:06:45.403Z,10.70
2017-04-14T08:07:44.924Z,10.70
2017-04-14T08:08:43.071Z,10.70
2017-04-14T08:09:41.273Z,10.70
2017-04-14T08:10:39.463Z,10.70
2017-04-14T08:11:37.627Z,10.70
2017-04-14T08:12:36.369Z,10.70
2017-04-14T08:13:34.496Z,10.70
2017-04-14T08:14:32.594Z,10.70
2017-04-14T08:16:29.487Z,10.80
2017-04-14T08:17:27.797Z,10.90
2017-04-14T08:18:26.482Z,10.90
2017-04-14T08:19:23.853Z,10.90
2017-04-14T08:20:21.192Z,11.00
2017-04-14T08:21:19.352Z,11.10
2017-04-14T08:22:17.442Z,11.10
2017-04-14T08:23:15.179Z,11.00
2017-04-14T08:24:13.324Z,11.00
2017-04-14T08:25:10.899Z,11.00
2017-04-14T08:26:08.321Z,11.10
2017-04-14T08:27:06.802Z,11.20
2017-04-14T08:28:04.623Z,11.20
2017-04-14T08:29:02.755Z,11.40
2017-04-14T08:30:00.068Z,11.30
2017-04-14T08:30:57.395Z,11.30
2017-04-14T08:31:54.722Z,11.30
2017-04-14T08:32:52.843Z,11.30
2017-04-14T08:33:51.010Z,11.40
2017-04-14T08:34:49.065Z,11.30
2017-04-14T08:35:46.425Z,11.40
2017-04-14T08:36:44.660Z,11.40
2017-04-14T08:37:42.002Z,11.40
2017-04-14T08:38:39.414Z,11.50
2017-04-14T08:39:36.722Z,11.40
2017-04-14T08:40:34.141Z,11.50
2017-04-14T08:41:32.263Z,11.50
2017-04-14T08:42:31.318Z,11.50
2017-04-14T08:43:28.619Z,11.50
2017-04-14T08:44:26.029Z,11.50
2017-04-14T08:45:24.117Z,11.60
2017-04-14T08:46:22.209Z,11.60
2017-04-14T08:47:19.560Z,11.50
2017-04-14T08:48:16.910Z,11.50
2017-04-14T08:49:14.258Z,11.60
2017-04-14T08:50:11.717Z,11.60
2017-04-14T08:51:09.894Z,11.80
2017-04-14T08:52:07.203Z,11.70
2017-04-14T08:53:04.552Z,11.70
2017-04-14T08:54:01.943Z,11.80
2017-04-14T08:55:00.018Z,11.90
2017-04-14T08:55:58.186Z,11.80
2017-04-14T08:56:56.546Z,11.90
2017-04-14T08:57:53.875Z,11.80
2017-04-14T08:58:51.205Z,11.90
2017-04-14T08:59:49.954Z,12.00
2017-04-14T09:00:48.003Z,12.00
2017-04-14T09:01:45.478Z,12.00
2017-04-14T09:02:42.963Z,11.90
2017-04-14T09:03:41.079Z,12.00
2017-04-14T09:04:39.070Z,12.00
2017-04-14T09:05:37.759Z,12.10
2017-04-14T09:06:35.307Z,12.20
2017-04-14T09:07:33.367Z,12.20
2017-04-14T09:08:30.726Z,12.20
2017-04-14T09:09:28.141Z,12.20
2017-04-14T09:10:26.289Z,12.20
2017-04-14T09:11:23.698Z,12.20
2017-04-14T09:12:21.196Z,12.20
2017-04-14T09:13:19.280Z,12.20
2017-04-14T09:14:17.369Z,12.20
2017-04-14T09:15:16.042Z,12.30
2017-04-14T09:16:14.121Z,12.30
2017-04-14T09:17:12.295Z,12.40
2017-04-14T09:18:09.714Z,12.30
2017-04-14T09:19:07.073Z,12.40
2017-04-14T09:20:04.369Z,12.40
2017-04-14T09:21:01.803Z,12.40
2017-04-14T09:21:59.180Z,12.40
2017-04-14T09:22:56.500Z,12.40
2017-04-14T09:23:53.903Z,12.40
2017-04-14T09:24:51.229Z,12.40
2017-04-14T09:25:49.302Z,12.50
2017-04-14T09:26:47.528Z,12.50
2017-04-14T09:27:44.859Z,12.50
2017-04-14T09:28:42.925Z,12.50
2017-04-14T09:29:41.063Z,12.50
2017-04-14T09:30:38.398Z,12.40
2017-04-14T09:31:35.823Z,12.50
2017-04-14T09:32:33.927Z,12.50
2017-04-14T09:33:32.213Z,12.50
2017-04-14T09:34:29.705Z,12.50
2017-04-14T09:35:27.150Z,12.50
2017-04-14T09:36:24.462Z,12.50
2017-04-14T09:37:21.830Z,12.40
2017-04-14T09:38:20.110Z,12.30
2017-04-14T09:39:18.275Z,12.30
2017-04-14T09:40:17.138Z,12.30
2017-04-14T09:41:17.042Z,12.30
2017-04-14T09:42:15.198Z,12.30
2017-04-14T09:43:13.401Z,12.30
2017-04-14T09:44:10.720Z,12.30
2017-04-14T09:45:08.058Z,12.30
2017-04-14T09:46:05.363Z,12.30
2017-04-14T09:47:03.541Z,12.40
2017-04-14T09:48:01.611Z,12.40
2017-04-14T09:48:58.932Z,12.40
2017-04-14T09:49:56.996Z,12.40
2017-04-14T09:50:54.320Z,12.40
2017-04-14T09:51:52.396Z,12.40
2017-04-14T09:52:50.560Z,12.50
2017-04-14T09:53:47.935Z,12.50
2017-04-14T09:54:45.255Z,12.50
2017-04-14T09:55:42.660Z,12.60
2017-04-14T09:56:39.979Z,12.70
2017-04-14T09:57:37.294Z,12.70
2017-04-14T09:58:35.515Z,12.60
2017-04-14T09:59:32.834Z,12.60
2017-04-14T10:00:30.909Z,12.60
2017-04-14T10:01:28.286Z,12.70
2017-04-14T10:02:26.350Z,12.70
2017-04-14T10:03:24.391Z,12.70
2017-04-14T10:04:21.807Z,12.70
2017-04-14T10:05:19.163Z,12.70
2017-04-14T10:06:16.477Z,12.70
2017-04-14T10:07:13.794Z,12.70
2017-04-14T10:08:11.871Z,12.90
2017-04-14T10:09:09.205Z,12.80
2017-04-14T10:10:06.599Z,12.90
2017-04-14T10:11:03.942Z,12.90
2017-04-14T10:12:01.245Z,12.90
2017-04-14T10:12:58.563Z,12.80
2017-04-14T10:13:56.041Z,12.80
2017-04-14T10:14:54.289Z,12.90
2017-04-14T10:15:53.318Z,13.00
2017-04-14T10:16:50.630Z,13.00
2017-04-14T10:17:48.681Z,13.10
2017-04-14T10:18:46.042Z,13.10
2017-04-14T10:19:43.397Z,13.20
2017-04-14T10:20:41.467Z,13.20
2017-04-14T10:21:38.889Z,13.20
2017-04-14T10:22:36.986Z,13.10
2017-04-14T10:23:34.322Z,13.10
2017-04-14T10:24:33.212Z,13.00
2017-04-14T10:25:30.537Z,13.00
2017-04-14T10:26:27.886Z,13.00
2017-04-14T10:27:25.326Z,13.00
2017-04-14T10:28:23.401Z,12.90
2017-04-14T10:29:20.707Z,12.90
2017-04-14T10:30:18.182Z,12.90
2017-04-14T10:31:15.669Z,12.90
2017-04-14T10:32:12.982Z,12.90
2017-04-14T10:33:10.366Z,12.90
2017-04-14T10:34:08.430Z,12.90
2017-04-14T10:35:05.759Z,12.90
2017-04-14T10:36:03.083Z,12.90
2017-04-14T10:37:00.433Z,12.90
2017-04-14T10:37:58.382Z,12.90
2017-04-14T10:38:56.535Z,12.90
2017-04-14T10:39:53.859Z,12.80
2017-04-14T10:40:51.194Z,12.80
2017-04-14T10:41:48.546Z,12.70
2017-04-14T10:42:45.934Z,12.70
2017-04-14T10:43:44.182Z,12.70
2017-04-14T10:44:41.609Z,12.60
2017-04-14T10:45:38.930Z,12.60
2017-04-14T10:46:37.021Z,12.50
2017-04-14T10:47:34.323Z,12.40
2017-04-14T10:48:32.396Z,12.40
2017-04-14T10:49:30.494Z,12.40
2017-04-14T10:50:27.873Z,12.40
2017-04-14T10:51:25.199Z,12.40
2017-04-14T10:52:23.295Z,12.20
2017-04-14T10:53:21.353Z,12.20
2017-04-14T10:54:19.474Z,12.20
2017-04-14T10:55:16.878Z,12.20
2017-04-14T10:56:14.287Z,12.10
2017-04-14T10:57:11.635Z,12.10
2017-04-14T10:58:08.958Z,12.10
2017-04-14T10:59:06.285Z,12.10
2017-04-14T11:00:03.663Z,12.00
2017-04-14T11:01:01.366Z,12.10
2017-04-14T11:01:59.428Z,12.10
2017-04-14T11:02:57.654Z,11.90
2017-04-14T11:03:54.967Z,11.90
2017-04-14T11:04:52.298Z,11.90
2017-04-14T11:05:49.653Z,11.90
2017-04-14T11:06:46.998Z,11.80
2017-04-14T11:07:44.462Z,11.80
2017-04-14T11:08:41.786Z,11.80
2017-04-14T11:09:39.180Z,11.80
2017-04-14T11:10:36.542Z,11.80
2017-04-14T11:11:33.862Z,11.80
2017-04-14T11:12:31.222Z,11.80
2017-04-14T11:13:29.396Z,11.90
2017-04-14T11:14:28.398Z,11.90
2017-04-14T11:15:26.491Z,12.00
2017-04-14T11:16:23.802Z,12.00
2017-04-14T11:17:21.115Z,12.00
2017-04-14T11:18:18.516Z,12.00
2017-04-14T11:19:16.677Z,12.10
2017-04-14T11:20:14.017Z,12.10
2017-04-14T11:21:11.965Z,12.20
2017-04-14T11:22:09.949Z,12.20
2017-04-14T11:23:07.998Z,12.30
2017-04-14T11:24:05.319Z,12.30
2017-04-14T11:25:04.110Z,12.40
2017-04-14T11:26:01.431Z,12.40
2017-04-14T11:26:59.543Z,12.40
2017-04-14T11:27:56.922Z,12.40
2017-04-14T11:28:54.231Z,12.40
2017-04-14T11:29:53.256Z,12.40
2017-04-14T11:30:51.527Z,12.50
2017-04-14T11:31:49.566Z,12.50
2017-04-14T11:32:46.886Z,12.40
2017-04-14T11:33:44.209Z,12.50
2017-04-14T11:34:42.283Z,12.50
2017-04-14T11:35:39.617Z,12.40
2017-04-14T11:36:36.990Z,12.50
2017-04-14T11:37:34.308Z,12.50
2017-04-14T11:38:32.700Z,12.60
2017-04-14T11:39:30.081Z,12.60
2017-04-14T11:40:27.427Z,12.70
2017-04-14T11:41:25.506Z,12.70
2017-04-14T11:42:24.275Z,12.80
2017-04-14T11:43:23.970Z,12.80
2017-04-14T11:44:22.946Z,12.80
2017-04-14T11:45:21.957Z,12.90
2017-04-14T11:46:21.179Z,12.90
2017-04-14T11:47:22.438Z,12.90
2017-04-14T11:48:22.430Z,12.90
2017-04-14T11:49:22.162Z,13.00
2017-04-14T11:50:22.147Z,13.10
2017-04-14T11:51:19.519Z,13.00
2017-04-14T11:52:16.835Z,13.00
2017-04-14T11:53:15.970Z,13.10
2017-04-14T11:54:13.674Z,13.00
2017-04-14T11:55:12.497Z,13.00
2017-04-14T11:56:10.137Z,13.10
2017-04-14T11:57:07.859Z,13.10
2017-04-14T11:58:05.202Z,13.10
2017-04-14T11:59:03.517Z,13.10
2017-04-14T12:00:02.077Z,13.00
2017-04-14T12:00:59.710Z,13.00
2017-04-14T12:01:57.549Z,12.90
2017-04-14T12:02:55.235Z,12.90
2017-04-14T12:03:53.511Z,12.80
2017-04-14T12:04:51.266Z,12.80
2017-04-14T12:05:48.959Z,12.80
2017-04-14T12:06:46.798Z,12.70
2017-04-14T12:07:44.943Z,12.70
2017-04-14T12:08:42.682Z,12.60
2017-04-14T12:09:40.350Z,12.60
2017-04-14T12:10:38.267Z,12.60
2017-04-14T12:11:36.171Z,12.60
2017-04-14T12:12:33.827Z,12.60
2017-04-14T12:13:31.550Z,12.60
2017-04-14T12:14:30.295Z,12.60
2017-04-14T12:15:27.913Z,12.70
2017-04-14T12:16:25.459Z,12.80
2017-04-14T12:17:23.413Z,12.80
2017-04-14T12:18:21.976Z,12.80
2017-04-14T12:19:19.503Z,12.80
2017-04-14T12:20:17.891Z,12.90
2017-04-14T12:21:15.259Z,12.90
2017-04-14T12:22:13.932Z,12.90
2017-04-14T12:23:14.225Z,13.00
2017-04-14T12:24:12.084Z,12.90
2017-04-14T12:25:10.637Z,12.90
2017-04-14T12:26:08.146Z,12.90
2017-04-14T12:27:05.796Z,13.00
2017-04-14T12:28:03.541Z,13.00
2017-04-14T12:29:02.119Z,12.90
2017-04-14T12:29:59.879Z,12.90
2017-04-14T12:30:57.557Z,12.90
2017-04-14T12:31:55.268Z,12.90
2017-04-14T12:32:53.756Z,12.80
2017-04-14T12:33:51.701Z,12.80
2017-04-14T12:34:49.534Z,12.80
2017-04-14T12:35:47.484Z,12.70
2017-04-14T12:36:45.198Z,12.70
2017-04-14T12:37:43.386Z,12.70
2017-04-14T12:38:41.262Z,12.70
2017-04-14T12:39:38.983Z,12.70
2017-04-14T12:40:37.311Z,12.70